M I D A S
Marine Information and Data Acquisition System
Tripno 408 of the Zeeleeuw from 2002-11-29 08:36:27 to 2002-11-29 12:55:31
Back to CruiseResearch ActivitiesStationsMapUnderway DataData graphs

EquipmentUnitsComments
TimeDGPSUTC
LatitudeDGPSDM.mWGS84
LongitudeDGPSDM.mWGS84
SpeedMeteo Stationm/sRelative wind speed
DirectionMeteo StationdegRelative wind direction
TemperatureMeteo Stationdeg CelciusAir temperature
PressureMeteo StationPaAtmospheric pressure
HumidityMeteo Station%Relative humidity
Missing or incorrect values are displayed as -999
Metereological data collected by the RV Zeeleeuw from 2002-11-29 08:36:27 to 2002-11-29 12:55:31
Time Latitude Longitude Speed Direction Temperature Pressure Humidity
2002-11-29 08:37 51°13.605 2°56.069 2.2 153 7.7 100980 89
2002-11-29 08:38 51°13.613 2°56.036 2.4 205 7.7 100980 89
2002-11-29 08:39 51°13.635 2°55.973 2.5 144 7.8 100980 89
2002-11-29 08:40 51°13.67 2°55.895 3.1 151 7.8 100980 89
2002-11-29 08:41 51°13.699 2°55.803 2.3 112 7.8 100980 89
2002-11-29 08:42 51°13.71 2°55.758 2.9 124 7.8 100980 89
2002-11-29 08:43 51°13.715 2°55.766 3.3 93 7.9 100980 89
2002-11-29 08:44 51°13.704 2°55.736 2.6 90 7.9 100980 89
2002-11-29 08:45 51°13.702 2°55.727 2.9 99 7.9 100980 89
2002-11-29 08:46 51°13.726 2°55.722 1.3 31 7.9 100980 89
2002-11-29 08:47 51°13.786 2°55.674 1.2 299 8 100980 89
2002-11-29 08:48 51°13.881 2°55.602 1.4 285 8 100980 89
2002-11-29 08:49 51°13.992 2°55.528 1.2 247 8.1 100980 89
2002-11-29 08:50 51°14.114 2°55.454 1.7 306 8.1 100980 89
2002-11-29 08:51 51°14.226 2°55.335 3.1 258 8.1 100980 88
2002-11-29 08:52 51°14.328 2°55.136 5.5 271 8.2 100980 88
2002-11-29 08:53 51°14.413 2°54.884 6 269 8.2 100980 88
2002-11-29 08:54 51°14.418 2°54.573 9.3 273 8.2 100960 88
2002-11-29 08:55 51°14.375 2°54.281 10.7 264 8.3 100950 88
2002-11-29 08:56 51°14.286 2°54.003 10.9 267 8.2 100950 88
2002-11-29 08:57 51°14.192 2°53.707 11.6 272 8.2 100940 88
2002-11-29 08:58 51°14.095 2°53.401 11.1 261 8.3 100930 88
2002-11-29 08:59 51°13.997 2°53.091 11.4 260 8.3 100950 88
2002-11-29 09:00 51°13.902 2°52.79 11 272 8.3 100940 88
2002-11-29 09:01 51°13.8 2°52.482 10.7 265 8.3 100930 88
2002-11-29 09:02 51°13.7 2°52.18 10.3 268 8.3 100940 88
2002-11-29 09:03 51°13.599 2°51.878 11.6 265 8.3 100950 88
2002-11-29 09:04 51°13.5 2°51.581 11.3 268 8.4 100940 88
2002-11-29 09:05 51°13.4 2°51.279 12.3 269 8.4 100940 88
2002-11-29 09:06 51°13.299 2°50.977 12.1 266 8.5 100940 88
2002-11-29 09:07 51°13.198 2°50.677 12.2 268 8.5 100950 88
2002-11-29 09:08 51°13.095 2°50.371 12.1 269 8.5 100940 88
2002-11-29 09:09 51°12.996 2°50.075 12.5 269 8.5 100930 88
2002-11-29 09:10 51°12.895 2°49.773 11.6 267 8.5 100940 88
2002-11-29 09:11 51°12.794 2°49.472 11.9 270 8.5 100940 88
2002-11-29 09:12 51°12.692 2°49.171 11.7 269 8.5 100940 88
2002-11-29 09:13 51°12.591 2°48.869 10.9 266 8.6 100940 88
2002-11-29 09:14 51°12.489 2°48.566 11.6 262 8.6 100940 87
2002-11-29 09:15 51°12.387 2°48.266 11.7 266 8.6 100940 87
2002-11-29 09:16 51°12.287 2°47.963 11.5 264 8.6 100950 87
2002-11-29 09:17 51°12.182 2°47.654 12.3 263 8.5 100940 87
2002-11-29 09:18 51°12.079 2°47.349 11.6 267 8.6 100950 87
2002-11-29 09:19 51°11.983 2°47.045 11.8 269 8.7 100950 87
2002-11-29 09:20 51°11.897 2°46.719 11.2 270 8.6 100950 87
2002-11-29 09:21 51°11.812 2°46.401 11.5 268 8.6 100940 87
2002-11-29 09:22 51°11.726 2°46.082 11.1 267 8.6 100950 87
2002-11-29 09:23 51°11.64 2°45.763 12.8 269 8.6 100950 87
2002-11-29 09:24 51°11.557 2°45.448 12.1 267 8.7 100950 87
2002-11-29 09:25 51°11.471 2°45.13 12.1 263 8.7 100960 87
2002-11-29 09:26 51°11.384 2°44.813 12 267 8.7 100950 87
2002-11-29 09:27 51°11.297 2°44.487 11.9 268 8.7 100950 87
2002-11-29 09:28 51°11.212 2°44.171 12 267 8.7 100940 87
2002-11-29 09:29 51°11.126 2°43.849 13.1 272 8.7 100950 87
2002-11-29 09:30 51°11.043 2°43.525 11.8 274 8.7 100950 87
2002-11-29 09:31 51°10.963 2°43.198 11.3 272 8.7 100940 87
2002-11-29 09:32 51°10.884 2°42.871 11.6 268 8.7 100950 87
2002-11-29 09:33 51°10.805 2°42.544 11.5 271 8.7 100950 87
2002-11-29 09:34 51°10.726 2°42.216 12 269 8.8 100940 87
2002-11-29 09:35 51°10.647 2°41.881 12.6 273 8.8 100950 87
2002-11-29 09:36 51°10.568 2°41.563 11.2 269 8.8 100950 87
2002-11-29 09:37 51°10.491 2°41.231 10.4 272 8.8 100950 87
2002-11-29 09:38 51°10.414 2°40.91 10.6 269 8.8 100960 87
2002-11-29 09:39 51°10.337 2°40.582 11.8 269 8.7 100960 87
2002-11-29 09:40 51°10.258 2°40.248 10.3 270 8.7 100960 87
2002-11-29 09:41 51°10.184 2°39.922 10.7 275 8.7 100960 87
2002-11-29 09:42 51°10.107 2°39.593 11.6 273 8.8 100960 87
2002-11-29 09:43 51°10.021 2°39.268 12.7 270 8.8 100960 87
2002-11-29 09:44 51°9.915 2°38.959 12.1 270 8.8 100950 87
2002-11-29 09:45 51°9.832 2°38.631 11.3 273 8.8 100960 87
2002-11-29 09:46 51°9.75 2°38.303 11.4 271 8.8 100960 87
2002-11-29 09:47 51°9.672 2°37.974 11.4 270 8.9 100960 87
2002-11-29 09:48 51°9.599 2°37.641 12.3 266 8.9 100950 87
2002-11-29 09:49 51°9.525 2°37.31 12.3 271 9 100950 86
2002-11-29 09:50 51°9.45 2°36.972 13.3 269 9.1 100950 87
2002-11-29 09:51 51°9.389 2°36.699 10.3 272 9.1 100950 86
2002-11-29 09:52 51°9.338 2°36.585 9.4 271 9.1 100970 86
2002-11-29 09:53 51°9.296 2°36.538 9.9 259 9.1 100970 86
2002-11-29 09:54 51°9.266 2°36.517 8.8 255 9.1 100980 86
2002-11-29 09:55 51°9.244 2°36.501 8.3 258 9.1 100970 86
2002-11-29 09:56 51°9.228 2°36.483 7.9 264 9.2 100970 86
2002-11-29 09:57 51°9.218 2°36.462 8.3 274 9.2 100970 86
2002-11-29 09:58 51°9.212 2°36.438 8.5 284 9.2 100970 86
2002-11-29 09:59 51°9.208 2°36.413 8.1 281 9.3 100980 86
2002-11-29 10:00 51°9.205 2°36.387 9.8 286 9.3 100980 86
2002-11-29 10:01 51°9.204 2°36.359 8.8 292 9.3 100980 85
2002-11-29 10:02 51°9.204 2°36.331 7.6 291 9.3 100980 86
2002-11-29 10:03 51°9.203 2°36.302 8.1 289 9.4 100990 86
2002-11-29 10:04 51°9.204 2°36.273 8.3 301 9.5 100990 85
2002-11-29 10:05 51°9.206 2°36.242 8 304 9.5 100990 85
2002-11-29 10:06 51°9.209 2°36.211 8.4 294 9.5 100990 84
2002-11-29 10:07 51°9.213 2°36.18 8.4 295 9.5 100990 85
2002-11-29 10:08 51°9.216 2°36.148 8.4 296 9.6 101000 85
2002-11-29 10:09 51°9.22 2°36.116 7.4 299 9.6 101000 85
2002-11-29 10:10 51°9.223 2°36.086 8 293 9.6 101000 85
2002-11-29 10:11 51°9.227 2°36.054 8.3 295 9.7 101000 85
2002-11-29 10:12 51°9.231 2°36.024 9 298 9.7 101000 85
2002-11-29 10:13 51°9.236 2°35.993 7.4 292 9.6 101000 84
2002-11-29 10:14 51°9.24 2°35.962 7.1 300 9.7 101000 85
2002-11-29 10:15 51°9.252 2°35.911 1.8 344 9.6 101000 84
2002-11-29 10:16 51°9.294 2°35.876 6.2 36 9.6 101000 85
2002-11-29 10:17 51°9.344 2°35.896 5.2 89 9.5 101010 85
2002-11-29 10:18 51°9.375 2°35.945 5.8 124 9.5 101020 85
2002-11-29 10:19 51°9.391 2°35.994 6.7 135 9.5 101010 85
2002-11-29 10:20 51°9.401 2°36.039 6.2 141 9.5 101010 85
2002-11-29 10:21 51°9.407 2°36.079 7.4 150 9.6 101010 86
2002-11-29 10:22 51°9.412 2°36.116 5.9 156 9.6 101010 85
2002-11-29 10:23 51°9.416 2°36.151 7.3 154 9.6 101020 85
2002-11-29 10:24 51°9.42 2°36.184 7.3 158 9.6 101020 84
2002-11-29 10:25 51°9.421 2°36.217 7.2 172 9.6 101020 85
2002-11-29 10:26 51°9.422 2°36.247 6.8 172 9.6 101020 84
2002-11-29 10:27 51°9.422 2°36.275 7.6 177 9.7 101020 85
2002-11-29 10:28 51°9.422 2°36.303 6.9 170 9.6 101020 84
2002-11-29 10:29 51°9.423 2°36.33 6.8 166 9.6 101020 85
2002-11-29 10:30 51°9.424 2°36.357 6.9 164 9.6 101020 85
2002-11-29 10:31 51°9.426 2°36.383 7.1 166 9.6 101020 85
2002-11-29 10:32 51°9.429 2°36.412 7.3 154 9.6 101030 85
2002-11-29 10:33 51°9.431 2°36.441 6.2 156 9.6 101030 85
2002-11-29 10:34 51°9.433 2°36.469 6.4 164 9.6 101030 84
2002-11-29 10:35 51°9.435 2°36.496 7.9 164 9.6 101030 85
2002-11-29 10:36 51°9.437 2°36.524 7.3 162 9.7 101020 85
2002-11-29 10:37 51°9.438 2°36.55 6.9 162 9.7 101030 85
2002-11-29 10:38 51°9.439 2°36.576 7.4 168 9.7 101030 85
2002-11-29 10:39 51°9.44 2°36.601 7.7 169 9.7 101030 84
2002-11-29 10:40 51°9.441 2°36.628 6.7 165 9.7 101030 85
2002-11-29 10:41 51°9.436 2°36.66 8 193 9.7 101030 85
2002-11-29 10:42 51°9.397 2°36.678 9.8 242 9.8 101000 85
2002-11-29 10:43 51°9.366 2°36.637 8 269 9.8 101010 84
2002-11-29 10:44 51°9.375 2°36.638 6.3 304 9.8 101030 84
2002-11-29 10:45 51°9.383 2°36.639 4.7 305 9.8 101040 85
2002-11-29 10:46 51°9.393 2°36.637 2.1 322 9.8 101040 84
2002-11-29 10:47 51°9.404 2°36.632 1.2 308 9.8 101040 84
2002-11-29 10:48 51°9.416 2°36.626 1.7 348 9.8 101040 84
2002-11-29 10:49 51°9.428 2°36.616 1.3 326 9.9 101050 84
2002-11-29 10:50 51°9.45 2°36.573 1.7 327 9.7 101050 84
2002-11-29 10:51 51°9.584 2°36.58 5.9 171 9.9 101050 85
2002-11-29 10:52 51°9.561 2°36.85 12.6 204 9.9 101020 85
2002-11-29 10:53 51°9.438 2°37.088 12 192 9.9 101020 84
2002-11-29 10:54 51°9.369 2°37.341 6.5 161 9.9 101020 84
2002-11-29 10:55 51°9.385 2°37.464 5.2 107 9.9 101040 85
2002-11-29 10:56 51°9.403 2°37.487 6 106 9.9 101050 84
2002-11-29 10:57 51°9.418 2°37.503 7.7 114 9.9 101040 84
2002-11-29 10:58 51°9.429 2°37.522 6.4 118 9.9 101040 84
2002-11-29 10:59 51°9.438 2°37.539 6.7 131 9.9 101050 84
2002-11-29 11:00 51°9.446 2°37.553 5.7 135 9.9 101040 84
2002-11-29 11:01 51°9.451 2°37.566 6.9 134 9.9 101050 84
2002-11-29 11:02 51°9.456 2°37.578 7.8 142 9.9 101050 84
2002-11-29 11:03 51°9.461 2°37.588 6.3 156 9.9 101050 84
2002-11-29 11:04 51°9.465 2°37.596 6.4 145 9.9 101050 84
2002-11-29 11:05 51°9.47 2°37.605 7.5 153 9.9 101050 84
2002-11-29 11:06 51°9.474 2°37.612 7.5 143 10 101050 84
2002-11-29 11:07 51°9.479 2°37.619 6 153 10 101060 84
2002-11-29 11:08 51°9.483 2°37.626 6.2 147 10 101060 83
2002-11-29 11:09 51°9.486 2°37.633 7.2 153 10 101060 84
2002-11-29 11:10 51°9.491 2°37.64 7 156 10 101060 84
2002-11-29 11:11 51°9.495 2°37.647 7.2 155 10 101060 83
2002-11-29 11:12 51°9.499 2°37.653 6.9 153 10 101060 83
2002-11-29 11:13 51°9.503 2°37.659 6.7 158 10 101060 83
2002-11-29 11:14 51°9.507 2°37.666 7.5 162 10 101060 83
2002-11-29 11:15 51°9.509 2°37.673 6.5 157 10.1 101070 84
2002-11-29 11:16 51°9.512 2°37.679 6.7 156 10.1 101070 83
2002-11-29 11:17 51°9.513 2°37.686 7 161 10.1 101070 83
2002-11-29 11:18 51°9.485 2°37.837 7.1 153 10.1 101060 83
2002-11-29 11:19 51°9.529 2°38.067 6.5 143 10.1 101070 84
2002-11-29 11:20 51°9.612 2°38.325 3.4 136 10.1 101070 83
2002-11-29 11:21 51°9.732 2°38.559 4.1 150 10.1 101080 83
2002-11-29 11:22 51°9.838 2°38.811 3.9 165 10.1 101080 83
2002-11-29 11:23 51°9.936 2°39.073 4.5 143 10.2 101080 83
2002-11-29 11:24 51°10.032 2°39.329 4.8 151 10.1 101080 83
2002-11-29 11:25 51°10.119 2°39.602 5 154 10.1 101080 83
2002-11-29 11:26 51°10.198 2°39.876 4.9 156 10.1 101080 83
2002-11-29 11:27 51°10.278 2°40.144 6.7 157 10.1 101090 84
2002-11-29 11:28 51°10.357 2°40.421 5.6 165 10 101080 83
2002-11-29 11:29 51°10.438 2°40.688 6.2 146 10 101080 83
2002-11-29 11:30 51°10.52 2°40.967 5.6 149 10 101090 84
2002-11-29 11:31 51°10.6 2°41.242 6.5 148 10 101090 83
2002-11-29 11:32 51°10.678 2°41.523 4.6 159 10 101090 83
2002-11-29 11:33 51°10.756 2°41.801 6 148 10 101090 84
2002-11-29 11:34 51°10.834 2°42.079 5.4 157 10 101090 83
2002-11-29 11:35 51°10.91 2°42.35 5.5 157 10 101090 83
2002-11-29 11:36 51°10.988 2°42.633 6.2 155 10 101090 83
2002-11-29 11:37 51°11.065 2°42.908 7.3 155 10 101080 83
2002-11-29 11:38 51°11.138 2°43.185 5.3 154 10 101090 83
2002-11-29 11:39 51°11.209 2°43.467 5.8 156 10.1 101080 83
2002-11-29 11:40 51°11.279 2°43.748 5.1 167 10.1 101090 83
2002-11-29 11:41 51°11.35 2°44.025 5.1 158 10 101090 83
2002-11-29 11:42 51°11.419 2°44.305 5.7 151 10 101090 83
2002-11-29 11:43 51°11.487 2°44.585 6.2 172 10.1 101090 83
2002-11-29 11:44 51°11.554 2°44.861 5.9 158 10 101090 83
2002-11-29 11:45 51°11.621 2°45.142 5.9 169 10.1 101090 83
2002-11-29 11:46 51°11.691 2°45.428 5.8 154 10 101090 83
2002-11-29 11:47 51°11.76 2°45.71 6.6 146 10 101090 83
2002-11-29 11:48 51°11.827 2°45.989 6.5 161 10 101100 83
2002-11-29 11:49 51°11.895 2°46.268 5.4 151 10 101100 83
2002-11-29 11:50 51°11.964 2°46.548 6.1 170 10 101100 83
2002-11-29 11:51 51°12.039 2°46.825 5 153 10 101100 82
2002-11-29 11:52 51°12.114 2°47.09 4.2 165 10 101100 83
2002-11-29 11:53 51°12.197 2°47.37 5.8 160 10.1 101100 83
2002-11-29 11:54 51°12.279 2°47.639 6.3 153 10.1 101100 83
2002-11-29 11:55 51°12.36 2°47.91 5.2 159 10.1 101100 82
2002-11-29 11:56 51°12.441 2°48.18 4.3 149 10 101100 82
2002-11-29 11:57 51°12.524 2°48.45 6 152 10 101100 82
2002-11-29 11:58 51°12.606 2°48.721 5.6 160 10.1 101100 82
2002-11-29 11:59 51°12.688 2°48.991 4.5 159 10 101100 82
2002-11-29 12:00 51°12.771 2°49.261 4.9 159 10.1 101110 82
2002-11-29 12:01 51°12.853 2°49.529 4.5 159 10.1 101110 82
2002-11-29 12:02 51°12.935 2°49.799 6.3 161 10.1 101110 82
2002-11-29 12:03 51°13.012 2°50.006 3.6 77 10.1 101110 82
2002-11-29 12:04 51°13.085 2°50.005 2.6 348 10.1 101120 82
2002-11-29 12:05 51°13.12 2°49.967 4.9 6 10.1 101120 81
2002-11-29 12:06 51°13.136 2°49.949 7.3 16 10.1 101120 81
2002-11-29 12:07 51°13.139 2°49.941 3.1 337 10.1 101120 81
2002-11-29 12:08 51°13.143 2°49.934 5.3 352 10.1 101120 82
2002-11-29 12:09 51°13.146 2°49.932 5 346 10.1 101130 81
2002-11-29 12:10 51°13.149 2°49.927 6.8 6 10.1 101120 82
2002-11-29 12:11 51°13.156 2°49.917 3.3 338 10.1 101120 81
2002-11-29 12:12 51°13.161 2°49.908 1.9 337 10.1 101120 81
2002-11-29 12:13 51°13.164 2°49.903 1.4 332 10.1 101120 82
2002-11-29 12:14 51°13.167 2°49.901 1 343 10.1 101120 81
2002-11-29 12:15 51°13.174 2°49.884 4.3 310 10.1 101120 81
2002-11-29 12:16 51°13.161 2°49.812 7.5 250 10.1 101110 82
2002-11-29 12:17 51°13.098 2°49.813 8.7 165 10.1 101110 82
2002-11-29 12:18 51°13.101 2°49.961 5.2 163 10.1 101110 82
2002-11-29 12:19 51°13.176 2°50.164 4.5 126 10.1 101120 82
2002-11-29 12:20 51°13.255 2°50.407 4.1 156 10.1 101120 82
2002-11-29 12:21 51°13.33 2°50.662 5.4 150 10.1 101130 82
2002-11-29 12:22 51°13.408 2°50.914 5.4 139 10.1 101120 82
2002-11-29 12:23 51°13.498 2°51.159 4.7 153 10.1 101130 82
2002-11-29 12:24 51°13.584 2°51.402 5 147 10.1 101130 82
2002-11-29 12:25 51°13.675 2°51.652 4.8 165 10.1 101130 82
2002-11-29 12:26 51°13.764 2°51.893 4.7 144 10.1 101130 82
2002-11-29 12:27 51°13.856 2°52.143 4.8 155 10.1 101130 82
2002-11-29 12:28 51°13.944 2°52.388 4.7 155 10.1 101130 82
2002-11-29 12:29 51°14.026 2°52.639 4.7 156 10.1 101130 82
2002-11-29 12:30 51°14.11 2°52.869 4.8 143 10.1 101130 82
2002-11-29 12:31 51°14.211 2°53.114 4.5 157 10.1 101130 82
2002-11-29 12:32 51°14.292 2°53.364 5.2 175 10.1 101140 82
2002-11-29 12:33 51°14.374 2°53.643 6.1 166 10.1 101130 82
2002-11-29 12:34 51°14.429 2°53.94 8.5 173 10.1 101130 81
2002-11-29 12:35 51°14.458 2°54.23 7.8 168 10 101130 81
2002-11-29 12:36 51°14.469 2°54.519 5.1 188 10.1 101130 81
2002-11-29 12:37 51°14.445 2°54.805 8.3 193 10.1 101130 81
2002-11-29 12:38 51°14.367 2°55.067 8.3 198 10.1 101120 81
2002-11-29 12:39 51°14.269 2°55.248 4.8 216 10.1 101140 81
2002-11-29 12:40 51°14.19 2°55.348 6.6 207 10.2 101140 80
2002-11-29 12:41 51°14.118 2°55.419 6.5 220 10.2 101140 80
2002-11-29 12:42 51°14.043 2°55.476 5.7 202 10.2 101140 80
2002-11-29 12:43 51°13.962 2°55.538 6.1 216 10.2 101140 80
2002-11-29 12:44 51°13.883 2°55.597 6.4 237 10.2 101140 80
2002-11-29 12:45 51°13.805 2°55.657 7.3 220 10.2 101140 80
2002-11-29 12:46 51°13.742 2°55.739 5.5 210 10.2 101150 80
2002-11-29 12:47 51°13.698 2°55.823 4.6 198 10.2 101150 80
2002-11-29 12:48 51°13.662 2°55.899 6.3 210 10.2 101150 80
2002-11-29 12:49 51°13.633 2°55.964 3.3 185 10.2 101150 80
2002-11-29 12:50 51°13.61 2°56.024 3.9 197 10.2 101150 80
2002-11-29 12:51 51°13.599 2°56.079 3.5 143 10.2 101150 80
2002-11-29 12:52 51°13.595 2°56.116 3 156 10.2 101160 80
2002-11-29 12:53 51°13.591 2°56.127 3.3 203 10.2 101160 80
2002-11-29 12:54 51°13.59 2°56.132 3 183 10.3 101160 80